sensor_id;sensor_type;location;lat;lon;timestamp;pressure;altitude;pressure_sealevel;temperature;humidity
77889;BME280;67082;41.704;44.768;2023-05-10T00:01:52;95681.97;;;15.78;64.08
77889;BME280;67082;41.704;44.768;2023-05-10T00:04:21;95692.88;;;15.76;64.03
77889;BME280;67082;41.704;44.768;2023-05-10T00:06:49;95688.03;;;15.77;64.13
77889;BME280;67082;41.704;44.768;2023-05-10T00:09:18;95691.88;;;15.79;63.83
77889;BME280;67082;41.704;44.768;2023-05-10T00:11:46;95682.66;;;15.73;63.81
77889;BME280;67082;41.704;44.768;2023-05-10T00:14:15;95667.38;;;15.54;64.48
77889;BME280;67082;41.704;44.768;2023-05-10T00:16:43;95691.06;;;15.59;64.56
77889;BME280;67082;41.704;44.768;2023-05-10T00:19:11;95691.91;;;15.65;64.32
77889;BME280;67082;41.704;44.768;2023-05-10T00:21:39;95691.72;;;15.68;64.19
77889;BME280;67082;41.704;44.768;2023-05-10T00:24:07;95684.59;;;15.67;64.27
77889;BME280;67082;41.704;44.768;2023-05-10T00:26:36;95676.88;;;15.62;64.52
77889;BME280;67082;41.704;44.768;2023-05-10T00:29:04;95688.84;;;15.63;64.79
77889;BME280;67082;41.704;44.768;2023-05-10T00:31:32;95685.44;;;15.73;63.86
77889;BME280;67082;41.704;44.768;2023-05-10T00:34:00;95697.88;;;15.72;64.34
77889;BME280;67082;41.704;44.768;2023-05-10T00:36:29;95696.53;;;15.68;64.11
77889;BME280;67082;41.704;44.768;2023-05-10T00:38:59;95682.47;;;15.62;64.14
77889;BME280;67082;41.704;44.768;2023-05-10T00:41:27;95689.13;;;15.65;64.24
77889;BME280;67082;41.704;44.768;2023-05-10T00:43:56;95688.25;;;15.59;64.62
77889;BME280;67082;41.704;44.768;2023-05-10T00:46:25;95676.50;;;15.55;64.47
77889;BME280;67082;41.704;44.768;2023-05-10T00:48:54;95686.06;;;15.63;64.61
77889;BME280;67082;41.704;44.768;2023-05-10T00:51:23;95678.25;;;15.52;64.14
77889;BME280;67082;41.704;44.768;2023-05-10T00:53:52;95678.56;;;15.54;64.32
77889;BME280;67082;41.704;44.768;2023-05-10T00:56:20;95695.84;;;15.58;64.14
77889;BME280;67082;41.704;44.768;2023-05-10T00:58:51;95701.31;;;15.33;65.22
77889;BME280;67082;41.704;44.768;2023-05-10T01:01:22;95711.69;;;15.32;64.94
77889;BME280;67082;41.704;44.768;2023-05-10T01:03:52;95708.22;;;15.23;65.48
77889;BME280;67082;41.704;44.768;2023-05-10T01:06:20;95703.28;;;15.18;65.49
77889;BME280;67082;41.704;44.768;2023-05-10T01:08:48;95717.44;;;15.29;65.49
77889;BME280;67082;41.704;44.768;2023-05-10T01:11:17;95697.13;;;15.28;65.39
77889;BME280;67082;41.704;44.768;2023-05-10T01:13:52;95715.25;;;15.18;65.18
77889;BME280;67082;41.704;44.768;2023-05-10T01:16:23;95716.28;;;15.21;65.08
77889;BME280;67082;41.704;44.768;2023-05-10T01:18:53;95711.06;;;15.28;65.47
77889;BME280;67082;41.704;44.768;2023-05-10T01:26:53;95715.41;;;15.29;65.15
77889;BME280;67082;41.704;44.768;2023-05-10T01:29:42;95717.91;;;15.27;65.74
77889;BME280;67082;41.704;44.768;2023-05-10T01:32:21;95708.00;;;15.26;65.45
77889;BME280;67082;41.704;44.768;2023-05-10T01:37:37;95712.72;;;15.20;66.00
77889;BME280;67082;41.704;44.768;2023-05-10T01:40:15;95725.72;;;15.23;65.63
77889;BME280;67082;41.704;44.768;2023-05-10T01:42:51;95719.38;;;15.23;65.75
77889;BME280;67082;41.704;44.768;2023-05-10T01:45:29;95724.28;;;15.13;65.31
77889;BME280;67082;41.704;44.768;2023-05-10T01:48:10;95722.34;;;14.90;66.66
77889;BME280;67082;41.704;44.768;2023-05-10T01:50:43;95726.53;;;14.86;66.86
77889;BME280;67082;41.704;44.768;2023-05-10T01:53:12;95728.47;;;14.94;66.52
77889;BME280;67082;41.704;44.768;2023-05-10T01:55:52;95728.13;;;15.01;66.33
77889;BME280;67082;41.704;44.768;2023-05-10T01:58:32;95729.19;;;15.04;66.18
77889;BME280;67082;41.704;44.768;2023-05-10T02:01:03;95739.66;;;15.09;66.35
77889;BME280;67082;41.704;44.768;2023-05-10T02:03:34;95718.09;;;15.09;65.89
77889;BME280;67082;41.704;44.768;2023-05-10T02:06:05;95724.56;;;15.15;66.24
77889;BME280;67082;41.704;44.768;2023-05-10T02:08:36;95715.91;;;15.13;65.79
77889;BME280;67082;41.704;44.768;2023-05-10T02:11:06;95724.47;;;15.24;65.44
77889;BME280;67082;41.704;44.768;2023-05-10T02:13:36;95727.56;;;15.26;65.33
77889;BME280;67082;41.704;44.768;2023-05-10T02:16:07;95726.75;;;15.26;65.58
77889;BME280;67082;41.704;44.768;2023-05-10T02:18:36;95731.28;;;15.23;65.50
77889;BME280;67082;41.704;44.768;2023-05-10T02:21:08;95725.81;;;15.14;65.42
77889;BME280;67082;41.704;44.768;2023-05-10T02:23:40;95736.22;;;15.28;65.49
77889;BME280;67082;41.704;44.768;2023-05-10T02:26:08;95739.84;;;15.20;65.76
77889;BME280;67082;41.704;44.768;2023-05-10T02:28:38;95726.56;;;15.15;66.12
77889;BME280;67082;41.704;44.768;2023-05-10T02:31:09;95739.66;;;15.23;65.58
77889;BME280;67082;41.704;44.768;2023-05-10T02:33:42;95741.59;;;15.32;65.40
77889;BME280;67082;41.704;44.768;2023-05-10T02:36:13;95750.09;;;15.37;65.16
77889;BME280;67082;41.704;44.768;2023-05-10T02:38:42;95732.16;;;15.58;64.52
77889;BME280;67082;41.704;44.768;2023-05-10T02:41:12;95726.75;;;15.84;63.95
77889;BME280;67082;41.704;44.768;2023-05-10T02:43:41;95726.44;;;15.96;63.36
77889;BME280;67082;41.704;44.768;2023-05-10T02:46:11;95708.94;;;16.16;62.39
77889;BME280;67082;41.704;44.768;2023-05-10T02:48:39;95731.00;;;16.48;62.14
77889;BME280;67082;41.704;44.768;2023-05-10T02:51:08;95734.22;;;16.61;61.33
77889;BME280;67082;41.704;44.768;2023-05-10T02:53:40;95743.72;;;16.69;61.08
77889;BME280;67082;41.704;44.768;2023-05-10T02:56:32;95740.28;;;16.80;60.63
77889;BME280;67082;41.704;44.768;2023-05-10T02:59:02;95737.28;;;16.83;60.58
77889;BME280;67082;41.704;44.768;2023-05-10T03:01:30;95736.31;;;16.86;60.14
77889;BME280;67082;41.704;44.768;2023-05-10T03:03:58;95747.06;;;16.93;60.47
77889;BME280;67082;41.704;44.768;2023-05-10T03:06:26;95727.00;;;16.95;59.83
77889;BME280;67082;41.704;44.768;2023-05-10T03:08:56;95732.97;;;17.08;59.83
77889;BME280;67082;41.704;44.768;2023-05-10T03:11:39;95735.84;;;17.39;58.99
77889;BME280;67082;41.704;44.768;2023-05-10T03:14:30;95735.91;;;17.44;58.25
77889;BME280;67082;41.704;44.768;2023-05-10T03:17:11;95732.56;;;17.40;58.04
77889;BME280;67082;41.704;44.768;2023-05-10T03:20:08;95735.56;;;17.62;57.88
77889;BME280;67082;41.704;44.768;2023-05-10T03:22:51;95741.19;;;17.62;57.22
77889;BME280;67082;41.704;44.768;2023-05-10T03:25:21;95744.06;;;17.73;57.56
77889;BME280;67082;41.704;44.768;2023-05-10T03:27:53;95742.81;;;17.74;57.56
77889;BME280;67082;41.704;44.768;2023-05-10T03:30:22;95728.16;;;17.90;56.96
77889;BME280;67082;41.704;44.768;2023-05-10T03:32:52;95743.31;;;18.09;56.27
77889;BME280;67082;41.704;44.768;2023-05-10T03:35:20;95738.25;;;18.13;55.68
77889;BME280;67082;41.704;44.768;2023-05-10T03:37:49;95738.28;;;18.19;55.44
77889;BME280;67082;41.704;44.768;2023-05-10T03:40:17;95732.72;;;18.24;55.18
77889;BME280;67082;41.704;44.768;2023-05-10T03:42:46;95732.28;;;18.31;55.22
77889;BME280;67082;41.704;44.768;2023-05-10T03:45:14;95725.66;;;18.34;55.09
77889;BME280;67082;41.704;44.768;2023-05-10T03:47:44;95728.19;;;18.32;55.14
77889;BME280;67082;41.704;44.768;2023-05-10T03:50:12;95721.75;;;18.26;55.36
77889;BME280;67082;41.704;44.768;2023-05-10T03:52:41;95726.94;;;18.33;55.61
77889;BME280;67082;41.704;44.768;2023-05-10T03:55:10;95732.53;;;18.33;56.34
77889;BME280;67082;41.704;44.768;2023-05-10T03:57:38;95726.38;;;18.29;55.91
77889;BME280;67082;41.704;44.768;2023-05-10T04:00:08;95730.09;;;18.15;56.47
77889;BME280;67082;41.704;44.768;2023-05-10T04:02:42;95727.78;;;18.08;56.61
77889;BME280;67082;41.704;44.768;2023-05-10T04:05:17;95732.25;;;17.95;56.82
77889;BME280;67082;41.704;44.768;2023-05-10T04:07:45;95725.25;;;17.79;57.05
77889;BME280;67082;41.704;44.768;2023-05-10T04:10:14;95724.25;;;17.82;57.20
77889;BME280;67082;41.704;44.768;2023-05-10T04:12:46;95723.50;;;18.18;56.60
77889;BME280;67082;41.704;44.768;2023-05-10T04:15:14;95715.09;;;18.18;55.94
77889;BME280;67082;41.704;44.768;2023-05-10T04:17:45;95730.03;;;18.41;56.01
77889;BME280;67082;41.704;44.768;2023-05-10T04:20:13;95711.19;;;18.47;54.95
77889;BME280;67082;41.704;44.768;2023-05-10T04:22:43;95722.06;;;18.81;54.79
77889;BME280;67082;41.704;44.768;2023-05-10T04:25:11;95728.25;;;19.02;54.72
77889;BME280;67082;41.704;44.768;2023-05-10T04:27:39;95710.38;;;19.05;54.04
77889;BME280;67082;41.704;44.768;2023-05-10T04:30:09;95712.50;;;19.21;53.94
77889;BME280;67082;41.704;44.768;2023-05-10T04:32:37;95705.34;;;19.20;54.06
77889;BME280;67082;41.704;44.768;2023-05-10T04:35:05;95708.84;;;19.04;53.78
77889;BME280;67082;41.704;44.768;2023-05-10T04:37:34;95713.16;;;18.88;53.92
77889;BME280;67082;41.704;44.768;2023-05-10T04:40:02;95714.06;;;18.58;54.75
77889;BME280;67082;41.704;44.768;2023-05-10T04:42:32;95705.38;;;18.61;54.33
77889;BME280;67082;41.704;44.768;2023-05-10T04:45:00;95715.91;;;18.77;53.90
77889;BME280;67082;41.704;44.768;2023-05-10T04:47:30;95704.94;;;18.74;54.69
77889;BME280;67082;41.704;44.768;2023-05-10T04:50:01;95712.91;;;18.86;53.74
77889;BME280;67082;41.704;44.768;2023-05-10T04:52:30;95709.88;;;19.01;53.60
77889;BME280;67082;41.704;44.768;2023-05-10T04:54:58;95719.69;;;19.33;53.14
77889;BME280;67082;41.704;44.768;2023-05-10T04:57:27;95704.88;;;19.38;53.11
77889;BME280;67082;41.704;44.768;2023-05-10T04:59:55;95704.13;;;19.43;52.46
77889;BME280;67082;41.704;44.768;2023-05-10T05:02:23;95697.13;;;19.05;53.23
77889;BME280;67082;41.704;44.768;2023-05-10T05:04:52;95696.88;;;19.14;52.62
77889;BME280;67082;41.704;44.768;2023-05-10T05:07:21;95698.41;;;19.04;53.00
77889;BME280;67082;41.704;44.768;2023-05-10T05:09:50;95697.41;;;19.13;53.47
77889;BME280;67082;41.704;44.768;2023-05-10T05:12:19;95694.03;;;19.03;53.49
77889;BME280;67082;41.704;44.768;2023-05-10T05:14:46;95698.38;;;18.93;53.64
77889;BME280;67082;41.704;44.768;2023-05-10T05:17:15;95693.28;;;19.03;53.38
77889;BME280;67082;41.704;44.768;2023-05-10T05:19:43;95673.88;;;19.05;53.32
77889;BME280;67082;41.704;44.768;2023-05-10T05:22:11;95679.25;;;19.08;53.61
77889;BME280;67082;41.704;44.768;2023-05-10T05:24:39;95680.28;;;19.16;53.53
77889;BME280;67082;41.704;44.768;2023-05-10T05:27:07;95681.84;;;19.23;53.10
77889;BME280;67082;41.704;44.768;2023-05-10T05:29:35;95673.19;;;19.32;52.49
77889;BME280;67082;41.704;44.768;2023-05-10T05:32:05;95673.19;;;19.32;52.32
77889;BME280;67082;41.704;44.768;2023-05-10T05:34:33;95676.00;;;19.21;52.79
77889;BME280;67082;41.704;44.768;2023-05-10T05:37:02;95665.53;;;19.27;52.64
77889;BME280;67082;41.704;44.768;2023-05-10T05:39:30;95667.06;;;19.39;52.50
77889;BME280;67082;41.704;44.768;2023-05-10T05:41:58;95672.63;;;19.17;52.60
77889;BME280;67082;41.704;44.768;2023-05-10T05:44:27;95653.72;;;19.06;52.42
77889;BME280;67082;41.704;44.768;2023-05-10T05:46:56;95659.91;;;19.21;52.25
77889;BME280;67082;41.704;44.768;2023-05-10T05:49:24;95648.38;;;19.19;52.31
77889;BME280;67082;41.704;44.768;2023-05-10T05:51:53;95659.13;;;19.26;52.34
77889;BME280;67082;41.704;44.768;2023-05-10T05:54:21;95660.19;;;19.45;51.66
77889;BME280;67082;41.704;44.768;2023-05-10T05:56:49;95662.22;;;19.39;51.22
77889;BME280;67082;41.704;44.768;2023-05-10T05:59:17;95651.75;;;19.45;51.62
77889;BME280;67082;41.704;44.768;2023-05-10T06:01:45;95638.22;;;19.38;51.73
77889;BME280;67082;41.704;44.768;2023-05-10T06:04:13;95663.75;;;19.40;50.64
77889;BME280;67082;41.704;44.768;2023-05-10T06:06:41;95652.00;;;19.31;50.91
77889;BME280;67082;41.704;44.768;2023-05-10T06:09:10;95654.28;;;19.21;51.43
77889;BME280;67082;41.704;44.768;2023-05-10T06:11:38;95647.13;;;19.26;51.81
77889;BME280;67082;41.704;44.768;2023-05-10T06:14:06;95640.25;;;19.21;52.00
77889;BME280;67082;41.704;44.768;2023-05-10T06:16:35;95643.56;;;19.31;51.49
77889;BME280;67082;41.704;44.768;2023-05-10T06:19:03;95635.66;;;19.29;51.82
77889;BME280;67082;41.704;44.768;2023-05-10T06:21:32;95629.00;;;19.32;52.29
77889;BME280;67082;41.704;44.768;2023-05-10T06:24:00;95630.53;;;19.55;52.26
77889;BME280;67082;41.704;44.768;2023-05-10T06:26:28;95626.94;;;19.49;52.06
77889;BME280;67082;41.704;44.768;2023-05-10T06:28:56;95640.00;;;19.52;52.38
77889;BME280;67082;41.704;44.768;2023-05-10T06:31:24;95642.78;;;19.58;52.12
77889;BME280;67082;41.704;44.768;2023-05-10T06:33:53;95636.91;;;19.72;52.09
77889;BME280;67082;41.704;44.768;2023-05-10T06:36:23;95632.00;;;19.89;51.90
77889;BME280;67082;41.704;44.768;2023-05-10T06:38:54;95636.88;;;20.00;50.99
77889;BME280;67082;41.704;44.768;2023-05-10T06:41:23;95643.78;;;19.93;51.54
77889;BME280;67082;41.704;44.768;2023-05-10T06:43:51;95621.00;;;20.08;51.53
77889;BME280;67082;41.704;44.768;2023-05-10T06:46:19;95625.88;;;19.96;51.91
77889;BME280;67082;41.704;44.768;2023-05-10T06:48:47;95626.63;;;20.08;52.16
77889;BME280;67082;41.704;44.768;2023-05-10T06:51:16;95622.28;;;20.12;52.33
77889;BME280;67082;41.704;44.768;2023-05-10T06:53:44;95621.00;;;20.13;52.72
77889;BME280;67082;41.704;44.768;2023-05-10T06:56:12;95619.22;;;20.10;52.43
77889;BME280;67082;41.704;44.768;2023-05-10T06:58:40;95623.03;;;20.18;52.58
77889;BME280;67082;41.704;44.768;2023-05-10T07:01:09;95627.34;;;20.30;52.32
77889;BME280;67082;41.704;44.768;2023-05-10T07:03:37;95622.78;;;20.22;51.64
77889;BME280;67082;41.704;44.768;2023-05-10T07:06:06;95619.72;;;20.14;51.99
77889;BME280;67082;41.704;44.768;2023-05-10T07:08:48;95627.63;;;20.21;52.29
77889;BME280;67082;41.704;44.768;2023-05-10T07:11:16;95615.34;;;20.24;52.05
77889;BME280;67082;41.704;44.768;2023-05-10T07:13:44;95618.94;;;20.19;51.28
77889;BME280;67082;41.704;44.768;2023-05-10T07:16:15;95617.41;;;20.18;51.39
77889;BME280;67082;41.704;44.768;2023-05-10T07:18:43;95605.41;;;20.12;51.62
77889;BME280;67082;41.704;44.768;2023-05-10T07:21:11;95608.72;;;20.16;51.86
77889;BME280;67082;41.704;44.768;2023-05-10T07:23:39;95610.97;;;20.23;51.40
77889;BME280;67082;41.704;44.768;2023-05-10T07:26:12;95608.16;;;20.29;51.36
77889;BME280;67082;41.704;44.768;2023-05-10T07:28:40;95614.00;;;20.42;51.08
77889;BME280;67082;41.704;44.768;2023-05-10T07:31:08;95620.91;;;20.35;50.94
77889;BME280;67082;41.704;44.768;2023-05-10T07:33:36;95608.69;;;20.27;50.88
77889;BME280;67082;41.704;44.768;2023-05-10T07:36:06;95601.31;;;20.13;50.90
77889;BME280;67082;41.704;44.768;2023-05-10T07:38:34;95598.94;;;20.28;51.37
77889;BME280;67082;41.704;44.768;2023-05-10T07:41:05;95599.97;;;20.36;51.09
77889;BME280;67082;41.704;44.768;2023-05-10T07:43:33;95602.22;;;20.43;50.84
77889;BME280;67082;41.704;44.768;2023-05-10T07:46:02;95592.50;;;20.44;50.91
77889;BME280;67082;41.704;44.768;2023-05-10T07:48:30;95610.63;;;20.54;50.46
77889;BME280;67082;41.704;44.768;2023-05-10T07:50:59;95601.47;;;20.37;50.92
77889;BME280;67082;41.704;44.768;2023-05-10T07:53:27;95593.00;;;20.48;51.22
77889;BME280;67082;41.704;44.768;2023-05-10T07:55:59;95600.38;;;20.57;51.13
77889;BME280;67082;41.704;44.768;2023-05-10T07:58:28;95589.06;;;20.62;50.46
77889;BME280;67082;41.704;44.768;2023-05-10T08:00:58;95579.34;;;20.63;50.99
77889;BME280;67082;41.704;44.768;2023-05-10T08:03:26;95575.78;;;20.57;50.81
77889;BME280;67082;41.704;44.768;2023-05-10T08:05:54;95568.88;;;20.58;50.91
77889;BME280;67082;41.704;44.768;2023-05-10T08:08:22;95567.78;;;20.67;50.83
77889;BME280;67082;41.704;44.768;2023-05-10T08:10:52;95566.72;;;20.75;51.08
77889;BME280;67082;41.704;44.768;2023-05-10T08:13:20;95563.09;;;20.80;50.47
77889;BME280;67082;41.704;44.768;2023-05-10T08:15:49;95557.72;;;20.82;51.11
77889;BME280;67082;41.704;44.768;2023-05-10T08:18:24;95551.28;;;20.87;50.69
77889;BME280;67082;41.704;44.768;2023-05-10T08:20:53;95547.97;;;20.89;50.91
77889;BME280;67082;41.704;44.768;2023-05-10T08:23:20;95546.69;;;20.90;50.41
77889;BME280;67082;41.704;44.768;2023-05-10T08:25:49;95548.47;;;20.93;50.77
77889;BME280;67082;41.704;44.768;2023-05-10T08:28:18;95542.25;;;21.00;50.78
77889;BME280;67082;41.704;44.768;2023-05-10T08:30:46;95542.06;;;20.92;50.07
77889;BME280;67082;41.704;44.768;2023-05-10T08:33:14;95541.22;;;21.03;50.34
77889;BME280;67082;41.704;44.768;2023-05-10T08:35:42;95527.66;;;21.01;50.05
77889;BME280;67082;41.704;44.768;2023-05-10T08:38:10;95515.91;;;20.97;49.90
77889;BME280;67082;41.704;44.768;2023-05-10T08:40:41;95525.75;;;21.15;50.12
77889;BME280;67082;41.704;44.768;2023-05-10T08:43:12;95507.03;;;21.17;49.83
77889;BME280;67082;41.704;44.768;2023-05-10T08:45:43;95523.13;;;21.22;50.46
77889;BME280;67082;41.704;44.768;2023-05-10T08:48:14;95513.84;;;21.27;50.17
77889;BME280;67082;41.704;44.768;2023-05-10T08:50:44;95511.03;;;21.27;49.94
77889;BME280;67082;41.704;44.768;2023-05-10T08:53:15;95512.38;;;21.21;50.06
77889;BME280;67082;41.704;44.768;2023-05-10T08:55:46;95505.88;;;21.31;50.48
77889;BME280;67082;41.704;44.768;2023-05-10T08:58:14;95506.53;;;21.43;50.57
77889;BME280;67082;41.704;44.768;2023-05-10T09:00:43;95514.44;;;21.44;50.38
77889;BME280;67082;41.704;44.768;2023-05-10T09:03:11;95513.94;;;21.46;50.44
77889;BME280;67082;41.704;44.768;2023-05-10T09:05:41;95497.72;;;21.52;50.38
77889;BME280;67082;41.704;44.768;2023-05-10T09:08:11;95500.78;;;21.54;50.20
77889;BME280;67082;41.704;44.768;2023-05-10T09:10:41;95498.50;;;21.52;50.16
77889;BME280;67082;41.704;44.768;2023-05-10T09:13:11;95495.50;;;21.45;50.24
77889;BME280;67082;41.704;44.768;2023-05-10T09:15:43;95496.56;;;21.66;50.20
77889;BME280;67082;41.704;44.768;2023-05-10T09:18:12;95486.53;;;21.70;49.45
77889;BME280;67082;41.704;44.768;2023-05-10T09:20:42;95505.47;;;21.75;48.98
77889;BME280;67082;41.704;44.768;2023-05-10T09:23:10;95498.88;;;21.67;48.97
77889;BME280;67082;41.704;44.768;2023-05-10T09:25:41;95507.28;;;21.73;49.57
77889;BME280;67082;41.704;44.768;2023-05-10T09:28:09;95488.84;;;21.90;50.08
77889;BME280;67082;41.704;44.768;2023-05-10T09:30:40;95492.22;;;21.89;48.42
77889;BME280;67082;41.704;44.768;2023-05-10T09:33:10;95494.28;;;21.88;48.65
77889;BME280;67082;41.704;44.768;2023-05-10T09:35:39;95480.16;;;21.88;48.57
77889;BME280;67082;41.704;44.768;2023-05-10T09:38:07;95481.56;;;22.00;48.42
77889;BME280;67082;41.704;44.768;2023-05-10T09:40:36;95476.44;;;21.99;48.27
77889;BME280;67082;41.704;44.768;2023-05-10T09:43:09;95476.69;;;22.01;47.51
77889;BME280;67082;41.704;44.768;2023-05-10T09:45:42;95483.69;;;21.94;48.07
77889;BME280;67082;41.704;44.768;2023-05-10T09:48:12;95483.84;;;22.02;47.85
77889;BME280;67082;41.704;44.768;2023-05-10T09:50:41;95480.44;;;22.09;47.60
77889;BME280;67082;41.704;44.768;2023-05-10T09:53:14;95480.81;;;22.18;47.73
77889;BME280;67082;41.704;44.768;2023-05-10T09:55:46;95473.03;;;22.24;47.73
77889;BME280;67082;41.704;44.768;2023-05-10T09:58:16;95462.97;;;22.29;48.26
77889;BME280;67082;41.704;44.768;2023-05-10T10:00:46;95466.34;;;22.27;47.20
77889;BME280;67082;41.704;44.768;2023-05-10T10:03:20;95466.25;;;22.33;46.65
77889;BME280;67082;41.704;44.768;2023-05-10T10:05:49;95468.19;;;22.43;46.99
77889;BME280;67082;41.704;44.768;2023-05-10T10:08:17;95450.94;;;22.47;46.50
77889;BME280;67082;41.704;44.768;2023-05-10T10:10:46;95444.13;;;22.55;46.51
77889;BME280;67082;41.704;44.768;2023-05-10T10:13:14;95430.75;;;22.56;45.93
77889;BME280;67082;41.704;44.768;2023-05-10T10:15:45;95435.19;;;22.70;45.61
77889;BME280;67082;41.704;44.768;2023-05-10T10:18:19;95432.03;;;22.73;45.09
77889;BME280;67082;41.704;44.768;2023-05-10T10:20:52;95427.72;;;22.85;45.15
77889;BME280;67082;41.704;44.768;2023-05-10T10:23:21;95420.13;;;22.93;44.52
77889;BME280;67082;41.704;44.768;2023-05-10T10:25:50;95417.28;;;22.80;44.50
77889;BME280;67082;41.704;44.768;2023-05-10T10:28:49;95413.19;;;22.94;44.85
77889;BME280;67082;41.704;44.768;2023-05-10T10:31:47;95412.50;;;23.20;43.32
77889;BME280;67082;41.704;44.768;2023-05-10T10:34:29;95413.28;;;23.33;42.68
77889;BME280;67082;41.704;44.768;2023-05-10T10:37:04;95413.28;;;23.33;41.91
77889;BME280;67082;41.704;44.768;2023-05-10T10:39:32;95414.59;;;23.45;42.65
77889;BME280;67082;41.704;44.768;2023-05-10T10:42:06;95417.00;;;23.54;41.81
77889;BME280;67082;41.704;44.768;2023-05-10T10:44:36;95424.75;;;23.67;41.48
77889;BME280;67082;41.704;44.768;2023-05-10T10:55:19;95410.78;;;24.08;42.87
77889;BME280;67082;41.704;44.768;2023-05-10T10:57:53;95410.47;;;23.98;43.45
77889;BME280;67082;41.704;44.768;2023-05-10T11:00:30;95406.50;;;24.27;43.01
77889;BME280;67082;41.704;44.768;2023-05-10T11:03:08;95388.88;;;24.21;42.74
77889;BME280;67082;41.704;44.768;2023-05-10T11:05:39;95403.38;;;24.38;43.94
77889;BME280;67082;41.704;44.768;2023-05-10T11:10:51;95389.16;;;24.31;42.84
77889;BME280;67082;41.704;44.768;2023-05-10T11:13:44;95396.50;;;24.13;43.20
77889;BME280;67082;41.704;44.768;2023-05-10T11:16:20;95388.91;;;23.82;43.13
77889;BME280;67082;41.704;44.768;2023-05-10T11:19:04;95387.84;;;23.59;43.55
77889;BME280;67082;41.704;44.768;2023-05-10T11:21:51;95381.09;;;23.75;43.37
77889;BME280;67082;41.704;44.768;2023-05-10T11:24:22;95386.88;;;23.96;43.08
77889;BME280;67082;41.704;44.768;2023-05-10T11:26:50;95401.53;;;24.07;42.94
77889;BME280;67082;41.704;44.768;2023-05-10T11:29:20;95393.16;;;24.02;42.41
77889;BME280;67082;41.704;44.768;2023-05-10T11:31:48;95387.16;;;24.05;42.94
77889;BME280;67082;41.704;44.768;2023-05-10T11:34:25;95400.44;;;24.10;43.19
77889;BME280;67082;41.704;44.768;2023-05-10T11:36:55;95406.50;;;24.14;43.61
77889;BME280;67082;41.704;44.768;2023-05-10T11:39:28;95395.03;;;23.99;43.12
77889;BME280;67082;41.704;44.768;2023-05-10T11:41:57;95386.75;;;23.88;42.89
77889;BME280;67082;41.704;44.768;2023-05-10T11:44:30;95398.09;;;23.88;42.61
77889;BME280;67082;41.704;44.768;2023-05-10T11:47:00;95394.47;;;23.88;43.27
77889;BME280;67082;41.704;44.768;2023-05-10T11:49:29;95405.56;;;23.86;42.96
77889;BME280;67082;41.704;44.768;2023-05-10T11:52:07;95393.16;;;23.89;42.79
77889;BME280;67082;41.704;44.768;2023-05-10T11:54:36;95393.22;;;24.09;43.05
77889;BME280;67082;41.704;44.768;2023-05-10T11:57:04;95383.47;;;24.10;42.34
77889;BME280;67082;41.704;44.768;2023-05-10T11:59:32;95385.56;;;24.30;41.93
77889;BME280;67082;41.704;44.768;2023-05-10T12:02:00;95387.94;;;24.39;41.66
77889;BME280;67082;41.704;44.768;2023-05-10T12:04:29;95389.88;;;24.44;41.72
77889;BME280;67082;41.704;44.768;2023-05-10T12:06:58;95398.75;;;24.61;41.53
77889;BME280;67082;41.704;44.768;2023-05-10T12:09:26;95399.97;;;24.53;40.90
77889;BME280;67082;41.704;44.768;2023-05-10T12:12:10;95391.56;;;24.60;40.99
77889;BME280;67082;41.704;44.768;2023-05-10T12:14:43;95384.47;;;24.67;40.95
77889;BME280;67082;41.704;44.768;2023-05-10T12:17:12;95386.34;;;24.64;41.35
77889;BME280;67082;41.704;44.768;2023-05-10T12:19:41;95383.38;;;24.57;41.54
77889;BME280;67082;41.704;44.768;2023-05-10T12:22:09;95385.06;;;24.52;40.91
77889;BME280;67082;41.704;44.768;2023-05-10T12:24:37;95383.78;;;24.40;40.94
77889;BME280;67082;41.704;44.768;2023-05-10T12:27:08;95386.09;;;24.42;41.25
77889;BME280;67082;41.704;44.768;2023-05-10T12:29:36;95379.84;;;24.43;41.24
77889;BME280;67082;41.704;44.768;2023-05-10T12:32:12;95376.59;;;24.39;41.17
77889;BME280;67082;41.704;44.768;2023-05-10T12:34:40;95379.44;;;24.39;41.30
77889;BME280;67082;41.704;44.768;2023-05-10T12:37:08;95384.25;;;24.31;41.66
77889;BME280;67082;41.704;44.768;2023-05-10T12:39:41;95378.13;;;24.40;42.03
77889;BME280;67082;41.704;44.768;2023-05-10T12:42:11;95376.78;;;24.21;41.83
77889;BME280;67082;41.704;44.768;2023-05-10T12:44:39;95369.50;;;24.12;42.27
77889;BME280;67082;41.704;44.768;2023-05-10T12:47:07;95364.97;;;23.96;42.74
77889;BME280;67082;41.704;44.768;2023-05-10T12:49:35;95363.00;;;24.04;43.05
77889;BME280;67082;41.704;44.768;2023-05-10T12:52:03;95353.44;;;23.94;43.13
77889;BME280;67082;41.704;44.768;2023-05-10T12:54:31;95347.00;;;23.94;43.06
77889;BME280;67082;41.704;44.768;2023-05-10T12:56:59;95359.19;;;24.02;42.78
77889;BME280;67082;41.704;44.768;2023-05-10T12:59:28;95358.97;;;23.87;42.17
77889;BME280;67082;41.704;44.768;2023-05-10T13:01:57;95372.38;;;23.99;42.38
77889;BME280;67082;41.704;44.768;2023-05-10T13:04:25;95372.47;;;23.94;42.39
77889;BME280;67082;41.704;44.768;2023-05-10T13:06:53;95384.34;;;23.79;42.37
77889;BME280;67082;41.704;44.768;2023-05-10T13:09:24;95385.13;;;23.67;42.66
77889;BME280;67082;41.704;44.768;2023-05-10T13:11:52;95385.75;;;23.60;42.56
77889;BME280;67082;41.704;44.768;2023-05-10T13:14:24;95390.34;;;23.50;43.17
77889;BME280;67082;41.704;44.768;2023-05-10T13:16:52;95360.53;;;23.49;43.50
77889;BME280;67082;41.704;44.768;2023-05-10T13:19:21;95387.94;;;23.54;43.99
77889;BME280;67082;41.704;44.768;2023-05-10T13:21:50;95383.38;;;23.51;43.78
77889;BME280;67082;41.704;44.768;2023-05-10T13:24:18;95382.50;;;23.43;43.76
77889;BME280;67082;41.704;44.768;2023-05-10T13:26:46;95384.06;;;23.44;43.94